首页
METAR-TAF:

METAR-TAF

机场 :

爱德华·劳伦斯·洛根将军国际机场

波士顿, 马萨诸塞州, 美国

纬度: 42-21-38N, 经度: 071-00-38W, 海拔: 6米

当前天气观测

该预报发布于40分钟前的15:54 UTC
风速10节,风向东北
温度 16°C
湿度 100%
气压 1015 hPa
能見度: 0.4公里

METAR: KBOS 271554Z 05010KT 1/4SM R04R/1800V3000FT FG VV002 16/16 A2998 RMK AO2 SFC VIS 1/2 SLP152 T01560156 $

时间: 12:34 (16:34 UTC)

预报

该预报发布于54分钟前的15:40 UTC
预报有效从27日的 16点(UTC)到 28日的 18点(UTC)
风速10节,风向东转东北
能見度: 0.8公里
阴天层高于200英尺
从 27日的 1700点(UTC)
风速10节,风向
能見度: 6.4公里
阴天层高于800英尺
轻雾
从 27日的 2100点(UTC)
风速14节,风向东南
能見度: 4.8公里
阴天层高于800英尺
小毛毛雨
从 27日的 2300点(UTC)
风速12节,风向南转南东
能見度: 3.2公里
阴天层高于300英尺
小阵雨, 轻雾
几率 30%
从 28日的 02点(UTC)到 28日的 07点(UTC)
能見度: 1.6公里
阴天层高于800英尺, 积雨云.
雷暴, 小雨, 轻雾
从 28日的 1200点(UTC)
风速9节,风向南转西南
能見度: 8.0公里
阴天层高于800英尺
轻雾
从 28日的 1500点(UTC)
风速9节,风向南转西南
能見度: 10公里
多云层高于2500英尺

TAF: KBOS 271540Z 2716/2818 07010KT 1/2SM FG OVC002 FM271700 10010KT 4SM BR OVC008 FM272100 14014KT 3SM -DZ OVC008 FM272300 15012KT 2SM -SHRA BR OVC003 PROB30 2802/2807 1SM -TSRA BR OVC008CB FM281200 21009KT 5SM BR OVC008 FM281500 21009KT P6SM BKN025

超过4000个机场的气象观测和天气预报(METAR&TAF报告)。

可查询的气象台以黄色和红色小点在地图上表示。

将鼠标移到小点上方,可查看气象台名称。

然后点击查看天气观测和预报。

如需切换地图:点击带黑十字的绿色按钮放大地图;点击带横线的绿色按钮缩小地图;或者点击绿色箭头查看邻近地区的地图。


METAR-TAF: